Maersk Drummond — A8JF3 — position and weather

sailwx.info

Track history (hours):
 
Tides and Currents Weather Stations Pressure Air Temp Water Temp Dewpoint Dewpoint Depression Visibility Wind Speed Wind Dir Waves Ship Positions

Maersk Drummond

Last reported at 2016-Dec-09 03:08 UTC. Time now 2016-Dec-10 04:59 UTC.
Position N 33°46' W 118°15'.

Length 294 m; draft 8.7 m.

Type: Ship (hazmat cat A). MMSI: 636091082.

Date/timePositionNaut miles runAvg speedWind from/ knotsBaromVisibWave heightAir tempDewpointWater temp
2016-Dec-09 03:08N 33°46' W 118°15'0 0.0
2016-Dec-09 02:33N 33°46' W 118°15'4 4.1
2016-Dec-09 01:34N 33°42' W 118°14'10 9.5
2016-Dec-09 00:33N 33°33' W 118°18'0 0.4
2016-Dec-08 23:33N 33°33' W 118°18'1 0.6
2016-Dec-08 22:33N 33°34' W 118°18'7 7.2
2016-Dec-08 21:33N 33°38' W 118°25'1110.6
2016-Dec-08 20:33N 33°43' W 118°36'1411.7
2016-Dec-08 19:21N 33°50' W 118°50'1215.0
2016-Dec-08 18:33N 33°56' W 119°03'1615.0
2016-Dec-08 17:28N 34°03' W 119°21'1715.1
2016-Dec-08 16:20N 34°08' W 119°41'1215.4
2016-Dec-08 15:33N 34°11' W 119°55'1715.4
2016-Dec-08 14:29N 34°16' W 120°14'1415.4
2016-Dec-08 13:33N 34°20' W 120°31'1715.1
2016-Dec-08 12:26N 34°24' W 120°50'  
Track history (hours):
 
Tides and Currents Weather Stations Pressure Air Temp Water Temp Dewpoint Dewpoint Depression Visibility Wind Speed Wind Dir Waves Ship Positions

Maersk Drummond

Last reported at 2016-Dec-09 03:08 UTC. Time now 2016-Dec-10 04:59 UTC.
Position N 33°46' W 118°15'.

Length 294 m; draft 8.7 m.

Type: Ship (hazmat cat A). MMSI: 636091082.

Date/timePositionNaut miles runAvg speedWind from/ knotsBaromVisibWave heightAir tempDewpointWater temp
2016-Dec-09 03:08N 33°46' W 118°15'0 0.0
2016-Dec-09 02:33N 33°46' W 118°15'4 4.1
2016-Dec-09 01:34N 33°42' W 118°14'10 9.5
2016-Dec-09 00:33N 33°33' W 118°18'0 0.4
2016-Dec-08 23:33N 33°33' W 118°18'1 0.6
2016-Dec-08 22:33N 33°34' W 118°18'7 7.2
2016-Dec-08 21:33N 33°38' W 118°25'1110.6
2016-Dec-08 20:33N 33°43' W 118°36'1411.7
2016-Dec-08 19:21N 33°50' W 118°50'1215.0
2016-Dec-08 18:33N 33°56' W 119°03'1615.0
2016-Dec-08 17:28N 34°03' W 119°21'1715.1
2016-Dec-08 16:20N 34°08' W 119°41'1215.4
2016-Dec-08 15:33N 34°11' W 119°55'1715.4
2016-Dec-08 14:29N 34°16' W 120°14'1415.4
2016-Dec-08 13:33N 34°20' W 120°31'1715.1
2016-Dec-08 12:26N 34°24' W 120°50'  

Dump ship's entire track history